Bruce Township, Michigan
Current Conditions -  °F | °C
As of 4:30 PM on Friday 28 Nov 2014 (Local Time) from KMTC Reporting Station
Light Snow Light Snow  
Wind Chill: 16°   Ceiling: 3800
Heat Index: 27°   Visibility: 7mi
Dew Point: 18°   Wind: 13mph
Humidity: 69%   Direction: 180°S
Pressure: 30.17"   Gusts: NA
Location:  42.8454°N, 83.0393°W
Report Text: KMTC 282130Z 18011KT 7SM -SN FEW019 BKN038 OVC065 M03/M08 A3017
Loading
Personal Weather Stations






























Interactive Weather Map New forecast layout! Learn more

10-Day Weather Forecast

Advertisements
Track Severe Weather on mobile